Time;durP1;ratioP1;P1;durP2;ratioP2;P2;SDS_P1;SDS_P2;PMS_P1;PMS_P2;Temp;Humidity;BMP_temperature;BMP_pressure;BME280_temperature;BME280_humidity;BME280_pressure;Samples;Min_cycle;Max_cycle;Signal;HPM_P1;HPM_P2
2022/04/19 00:01:28;;;;;;;2.40;1.80;;;5.40;93.40;;;;;;5111620;28;20984;-45
2022/04/19 00:03:55;;;;;;;1.80;1.63;;;5.50;93.70;;;;;;5111490;28;20447;-48
2022/04/19 00:06:22;;;;;;;1.93;1.40;;;6.00;93.50;;;;;;5111555;28;20492;-48
2022/04/19 00:08:50;;;;;;;2.10;1.90;;;6.20;92.80;;;;;;5111658;28;20867;-48
2022/04/19 00:11:17;;;;;;;2.17;1.97;;;6.30;92.90;;;;;;5111375;28;20463;-47
2022/04/19 00:13:44;;;;;;;2.57;1.47;;;6.40;92.30;;;;;;5111311;28;20488;-47
2022/04/19 00:16:10;;;;;;;2.50;1.50;;;6.60;92.30;;;;;;5111757;28;20521;-48
2022/04/19 00:18:39;;;;;;;1.93;1.70;;;6.20;91.70;;;;;;5111569;28;20475;-48
2022/04/19 00:21:06;;;;;;;1.63;1.43;;;6.20;92.40;;;;;;5111349;28;20482;-48
2022/04/19 00:23:32;;;;;;;1.80;1.60;;;6.30;92.50;;;;;;5111033;28;20439;-48
2022/04/19 00:25:59;;;;;;;3.43;2.00;;;6.30;92.40;;;;;;5111533;28;20450;-48
2022/04/19 00:28:27;;;;;;;4.10;2.00;;;6.50;93.00;;;;;;5111548;28;20526;-48
2022/04/19 00:30:54;;;;;;;1.40;1.23;;;6.60;92.10;;;;;;5111207;28;20942;-47
2022/04/19 00:33:21;;;;;;;2.90;1.70;;;6.60;92.10;;;;;;5111160;28;20495;-48
2022/04/19 00:35:50;;;;;;;1.53;1.33;;;6.70;92.10;;;;;;5111066;28;20453;-48
2022/04/19 00:38:16;;;;;;;2.13;1.90;;;6.80;91.90;;;;;;5113449;28;20488;-47
2022/04/19 00:40:43;;;;;;;1.63;1.53;;;6.90;92.00;;;;;;5115628;28;20863;-48
2022/04/19 00:43:11;;;;;;;1.57;1.40;;;6.90;91.70;;;;;;5114898;28;20458;-48
2022/04/19 00:45:38;;;;;;;1.87;1.60;;;6.90;91.60;;;;;;5115028;28;20472;-47
2022/04/19 00:48:07;;;;;;;2.17;1.90;;;6.80;91.50;;;;;;5115050;28;20466;-47
2022/04/19 00:50:34;;;;;;;1.80;1.70;;;6.60;91.30;;;;;;5114912;28;20978;-47
2022/04/19 00:53:03;;;;;;;3.13;2.30;;;6.00;92.10;;;;;;5115165;28;20458;-48
2022/04/19 00:55:32;;;;;;;1.87;1.70;;;6.00;92.90;;;;;;5115221;28;20449;-47
2022/04/19 00:57:59;;;;;;;2.57;1.53;;;5.80;93.20;;;;;;5114932;28;20474;-49
2022/04/19 01:00:26;;;;;;;2.53;2.03;;;5.90;93.40;;;;;;5114908;28;20529;-47
2022/04/19 01:02:53;;;;;;;2.00;1.90;;;6.10;93.00;;;;;;5114533;28;20507;-49
2022/04/19 01:05:20;;;;;;;2.27;2.03;;;6.00;93.00;;;;;;5115124;28;20442;-48
2022/04/19 01:07:47;;;;;;;2.00;1.67;;;6.10;93.00;;;;;;5114535;28;20809;-49
2022/04/19 01:10:16;;;;;;;2.50;2.30;;;6.20;93.30;;;;;;5114615;28;20491;-48
2022/04/19 01:15:27;;;;;;;2.07;1.70;;;6.50;93.10;;;;;;5114683;28;20441;-48
2022/04/19 01:17:55;;;;;;;2.20;1.73;;;6.60;93.10;;;;;;5114558;28;20563;-48
2022/04/19 01:20:22;;;;;;;1.80;1.70;;;6.40;92.60;;;;;;5114765;28;20442;-47
2022/04/19 01:22:50;;;;;;;1.90;1.80;;;6.50;92.60;;;;;;5114608;28;20466;-46
2022/04/19 01:25:19;;;;;;;1.93;1.83;;;6.50;92.80;;;;;;5114573;28;20921;-47
2022/04/19 01:27:46;;;;;;;1.43;1.33;;;6.60;93.20;;;;;;5114564;28;20928;-47
2022/04/19 01:30:14;;;;;;;2.00;1.80;;;6.50;93.00;;;;;;5114454;28;20534;-48
2022/04/19 01:32:41;;;;;;;1.53;1.37;;;6.50;93.10;;;;;;5114106;28;20466;-48
2022/04/19 01:35:12;;;;;;;2.40;1.57;;;6.50;92.40;;;;;;5114337;28;20441;-47
2022/04/19 01:37:41;;;;;;;1.70;1.60;;;6.40;92.40;;;;;;5113983;28;20482;-49
2022/04/19 01:40:19;;;;;;;2.17;1.80;;;6.10;92.60;;;;;;5113955;28;20439;-47
2022/04/19 01:42:48;;;;;;;2.53;1.70;;;5.70;93.00;;;;;;5114328;28;20463;-47
2022/04/19 01:45:16;;;;;;;2.87;1.50;;;5.40;93.30;;;;;;5114359;28;20435;-48
2022/04/19 01:47:44;;;;;;;2.47;1.93;;;5.10;94.00;;;;;;5114018;28;20505;-48
2022/04/19 01:50:12;;;;;;;1.97;1.77;;;5.30;94.30;;;;;;5113233;28;20451;-48
2022/04/19 01:52:39;;;;;;;3.00;1.70;;;5.60;94.30;;;;;;5113508;28;20535;-49
2022/04/19 01:55:12;;;;;;;1.70;1.60;;;5.90;94.10;;;;;;5114036;28;20439;-48
2022/04/19 01:57:39;;;;;;;2.07;1.80;;;6.00;93.70;;;;;;5114045;28;20553;-48
2022/04/19 02:00:07;;;;;;;1.70;1.57;;;6.10;93.40;;;;;;5113818;28;20951;-47
2022/04/19 02:02:34;;;;;;;1.63;1.53;;;6.10;93.40;;;;;;5113596;28;20506;-48
2022/04/19 02:05:01;;;;;;;1.50;1.40;;;6.10;93.20;;;;;;5113676;28;20445;-48
2022/04/19 02:07:28;;;;;;;1.73;1.53;;;6.10;93.40;;;;;;5114254;28;20932;-48
2022/04/19 02:09:55;;;;;;;1.80;1.50;;;5.90;93.30;;;;;;5113776;28;20525;-48
2022/04/19 02:12:24;;;;;;;2.20;1.83;;;6.10;93.70;;;;;;5113369;28;20549;-48
2022/04/19 02:14:51;;;;;;;4.37;3.50;;;6.20;93.80;;;;;;5113860;28;20530;-48
2022/04/19 02:17:19;;;;;;;4.00;2.50;;;6.20;93.50;;;;;;5113435;28;20577;-49
2022/04/19 02:19:47;;;;;;;2.70;1.90;;;5.90;93.40;;;;;;5113184;28;20495;-48
2022/04/19 02:22:14;;;;;;;2.60;1.67;;;5.80;93.50;;;;;;5112955;28;20972;-48
2022/04/19 02:24:41;;;;;;;2.00;1.67;;;5.50;94.20;;;;;;5113338;28;20814;-47
2022/04/19 02:27:08;;;;;;;2.40;1.43;;;5.70;94.70;;;;;;5113690;28;20474;-48
2022/04/19 02:29:37;;;;;;;2.10;1.33;;;5.90;94.40;;;;;;5113405;28;20525;-48
2022/04/19 02:32:04;;;;;;;1.90;1.80;;;5.80;93.70;;;;;;5113081;28;20515;-47
2022/04/19 02:34:31;;;;;;;1.70;1.60;;;5.50;94.20;;;;;;5112542;28;20451;-48
2022/04/19 02:36:58;;;;;;;1.83;1.50;;;5.50;94.60;;;;;;5113116;28;20438;-47
2022/04/19 02:39:25;;;;;;;6.00;1.73;;;5.60;95.00;;;;;;5112467;28;20531;-48
2022/04/19 02:41:53;;;;;;;2.77;2.47;;;5.50;94.90;;;;;;5112951;28;20500;-47
2022/04/19 02:44:20;;;;;;;2.87;2.17;;;5.60;95.00;;;;;;5112978;28;20443;-48
2022/04/19 02:46:49;;;;;;;2.20;2.00;;;5.70;94.70;;;;;;5113088;28;20439;-48
2022/04/19 02:49:16;;;;;;;2.87;1.70;;;5.50;94.60;;;;;;5113115;28;20475;-48
2022/04/19 02:51:43;;;;;;;2.10;1.90;;;5.10;94.90;;;;;;5112863;28;20458;-48
2022/04/19 02:54:10;;;;;;;4.73;2.30;;;5.00;95.60;;;;;;5112474;28;20519;-49
2022/04/19 02:56:37;;;;;;;1.77;1.67;;;5.10;95.30;;;;;;5112435;28;20536;-48
2022/04/19 02:59:04;;;;;;;2.60;1.90;;;4.70;96.00;;;;;;5112972;28;20911;-48
2022/04/19 03:01:31;;;;;;;2.13;1.93;;;4.90;96.30;;;;;;5111630;28;20526;-47
2022/04/19 03:04:00;;;;;;;2.20;2.10;;;4.90;96.20;;;;;;5112602;28;20469;-48
2022/04/19 03:06:27;;;;;;;2.43;1.50;;;4.80;96.30;;;;;;5112624;28;20439;-49
2022/04/19 03:08:54;;;;;;;2.13;1.93;;;4.90;96.30;;;;;;5112643;28;21024;-47
2022/04/19 03:11:21;;;;;;;1.73;1.47;;;5.00;96.40;;;;;;5112397;28;20660;-47
2022/04/19 03:13:48;;;;;;;2.17;1.97;;;5.30;96.10;;;;;;5112406;28;20483;-48
2022/04/19 03:16:15;;;;;;;2.80;1.93;;;5.40;95.90;;;;;;5112547;28;20557;-47
2022/04/19 03:18:42;;;;;;;2.43;1.90;;;5.60;95.90;;;;;;5112397;28;20470;-48
2022/04/19 03:21:14;;;;;;;2.20;1.83;;;5.50;96.00;;;;;;5113001;28;20479;-49
2022/04/19 03:29:12;;;;;;;2.87;2.43;;;4.90;96.20;;;;;;5112264;28;20414;-48
2022/04/19 03:31:39;;;;;;;2.67;2.47;;;4.50;97.10;;;;;;5111959;28;20807;-48
2022/04/19 03:34:07;;;;;;;2.20;2.00;;;4.10;97.80;;;;;;5111481;28;20525;-49
2022/04/19 03:36:35;;;;;;;2.80;2.27;;;4.00;98.20;;;;;;5112234;28;20522;-47
2022/04/19 03:39:02;;;;;;;2.70;2.47;;;4.50;98.40;;;;;;5111365;28;20848;-48
2022/04/19 03:41:29;;;;;;;2.10;1.90;;;4.80;98.20;;;;;;5111971;28;20516;-47
2022/04/19 03:43:56;;;;;;;2.90;2.70;;;5.10;98.10;;;;;;5111457;28;20489;-47
2022/04/19 03:46:23;;;;;;;2.63;2.07;;;5.40;97.70;;;;;;5111662;28;20476;-48
2022/04/19 03:48:50;;;;;;;2.90;2.20;;;5.40;97.40;;;;;;5112015;28;20445;-48
2022/04/19 03:51:17;;;;;;;2.20;2.00;;;5.60;97.20;;;;;;5111806;28;20459;-48
2022/04/19 03:53:46;;;;;;;2.80;2.20;;;5.80;97.00;;;;;;5111738;28;20507;-48
2022/04/19 03:56:13;;;;;;;2.20;2.00;;;5.90;96.80;;;;;;5111855;28;20457;-47
2022/04/19 03:58:40;;;;;;;3.40;2.07;;;5.90;96.70;;;;;;5111490;28;20995;-48
2022/04/19 04:01:08;;;;;;;2.60;2.00;;;5.70;96.90;;;;;;5111854;28;20497;-48
2022/04/19 04:03:35;;;;;;;2.13;1.63;;;5.90;96.90;;;;;;5111867;28;20801;-47
2022/04/19 04:06:02;;;;;;;2.77;1.73;;;5.90;96.70;;;;;;5111888;28;20474;-47
2022/04/19 04:08:29;;;;;;;2.80;1.97;;;5.90;96.60;;;;;;5111555;28;20438;-48
2022/04/19 04:10:57;;;;;;;2.20;1.97;;;5.90;96.80;;;;;;5111402;28;20475;-47
2022/04/19 04:13:24;;;;;;;2.57;2.20;;;5.90;96.60;;;;;;5111350;28;20442;-47
2022/04/19 04:15:51;;;;;;;2.77;1.70;;;5.70;96.60;;;;;;5111394;28;21012;-47
2022/04/19 04:18:18;;;;;;;3.43;1.70;;;5.50;97.10;;;;;;5111775;28;20478;-48
2022/04/19 04:20:45;;;;;;;2.57;1.90;;;5.60;97.20;;;;;;5111472;28;20535;-48
2022/04/19 04:23:11;;;;;;;2.23;2.03;;;5.80;97.00;;;;;;5111159;28;20449;-49
2022/04/19 04:25:38;;;;;;;2.07;1.70;;;5.80;96.80;;;;;;5111103;28;20465;-47
2022/04/19 04:28:07;;;;;;;2.23;1.87;;;5.50;96.90;;;;;;5111480;28;20483;-47
2022/04/19 04:30:34;;;;;;;2.20;2.00;;;5.60;97.10;;;;;;5111467;28;20482;-48
2022/04/19 04:33:01;;;;;;;3.20;2.37;;;5.50;97.10;;;;;;5111351;28;20458;-47
2022/04/19 04:35:28;;;;;;;2.83;2.23;;;5.40;97.70;;;;;;5111322;28;20442;-48
2022/04/19 04:37:55;;;;;;;4.40;3.80;;;5.60;97.70;;;;;;5110547;28;20450;-48
2022/04/19 04:40:22;;;;;;;22.73;20.67;;;5.80;97.80;;;;;;5111821;28;20481;-47
2022/04/19 04:42:49;;;;;;;6.20;5.60;;;5.80;97.80;;;;;;5111173;28;20513;-48
2022/04/19 04:45:17;;;;;;;2.37;2.17;;;5.90;97.50;;;;;;5111034;28;20442;-47
2022/04/19 04:50:29;;;;;;;3.90;3.60;;;5.40;97.20;;;;;;5111264;28;20511;-47
2022/04/19 04:52:56;;;;;;;3.97;3.67;;;5.40;97.80;;;;;;5110966;28;20455;-48
2022/04/19 04:55:23;;;;;;;3.80;3.03;;;5.10;97.90;;;;;;5111343;28;20439;-49
2022/04/19 04:57:51;;;;;;;6.57;3.10;;;5.40;98.40;;;;;;5110966;28;20963;-48
2022/04/19 05:00:19;;;;;;;2.50;2.30;;;5.60;98.80;;;;;;5110935;28;20434;-47
2022/04/19 05:02:46;;;;;;;5.23;2.53;;;5.60;98.40;;;;;;5110641;28;20539;-47
2022/04/19 05:05:13;;;;;;;4.00;3.00;;;5.80;98.30;;;;;;5110783;28;20495;-47
2022/04/19 05:07:40;;;;;;;3.73;2.27;;;6.00;98.40;;;;;;5110835;28;20873;-47
2022/04/19 05:10:08;;;;;;;2.73;2.33;;;6.10;98.70;;;;;;5111077;28;20479;-48
2022/04/19 05:12:35;;;;;;;4.87;2.87;;;6.20;98.40;;;;;;5111220;28;20526;-48
2022/04/19 05:15:02;;;;;;;5.67;3.17;;;6.20;98.00;;;;;;5111157;28;20465;-47
2022/04/19 05:17:31;;;;;;;3.50;2.80;;;6.30;98.20;;;;;;5111404;28;20841;-47
2022/04/19 05:19:58;;;;;;;3.40;2.73;;;6.40;97.90;;;;;;5109936;28;21060;-48
2022/04/19 05:22:25;;;;;;;5.73;3.37;;;6.60;97.70;;;;;;5110009;28;20503;-47
2022/04/19 05:24:52;;;;;;;5.00;3.10;;;6.70;97.80;;;;;;5112312;28;20560;-47
2022/04/19 05:27:19;;;;;;;5.73;2.93;;;6.70;97.50;;;;;;5114556;28;20482;-47
2022/04/19 05:29:46;;;;;;;3.03;2.40;;;6.70;97.30;;;;;;5114330;28;20467;-48
2022/04/19 05:32:13;;;;;;;2.90;2.60;;;6.70;97.70;;;;;;5114288;28;20493;-48
2022/04/19 05:34:41;;;;;;;3.83;3.10;;;6.70;97.10;;;;;;5113838;28;21001;-48
2022/04/19 05:37:08;;;;;;;2.97;2.77;;;6.60;97.40;;;;;;5114364;28;20474;-48
2022/04/19 05:39:35;;;;;;;3.20;2.90;;;6.70;97.30;;;;;;5114193;28;20553;-47
2022/04/19 05:42:02;;;;;;;3.00;2.17;;;6.70;97.50;;;;;;5114553;28;20979;-48
2022/04/19 05:44:29;;;;;;;2.90;2.50;;;6.70;97.50;;;;;;5113923;28;20447;-49
2022/04/19 05:46:55;;;;;;;3.50;2.37;;;6.80;97.10;;;;;;5114377;28;20474;-48
2022/04/19 05:49:22;;;;;;;4.03;2.87;;;6.80;97.40;;;;;;5114355;28;20438;-48
2022/04/19 05:51:51;;;;;;;4.43;2.60;;;6.70;97.50;;;;;;5113923;28;20484;-48
2022/04/19 05:54:18;;;;;;;3.60;2.20;;;6.90;97.10;;;;;;5113956;28;20470;-47
2022/04/19 05:56:44;;;;;;;3.10;2.27;;;7.00;96.70;;;;;;5114265;28;20499;-47
2022/04/19 05:59:11;;;;;;;2.60;2.40;;;7.10;96.70;;;;;;5113528;28;20572;-48
2022/04/19 06:07:05;;;;;;;4.33;2.40;;;7.10;98.20;;;;;;5112449;28;20440;-48
2022/04/19 06:09:32;;;;;;;3.13;2.70;;;7.20;98.20;;;;;;5112442;28;20800;-49
2022/04/19 06:12:00;;;;;;;3.50;2.37;;;7.20;98.50;;;;;;5112255;28;20489;-48
2022/04/19 06:14:27;;;;;;;2.97;1.90;;;7.20;98.00;;;;;;5111812;28;20537;-48
2022/04/19 06:16:54;;;;;;;2.33;2.13;;;7.30;97.90;;;;;;5112196;28;20497;-47
2022/04/19 06:19:22;;;;;;;3.87;2.70;;;7.40;97.30;;;;;;5113331;28;20502;-48
2022/04/19 06:21:49;;;;;;;2.13;1.93;;;7.30;96.60;;;;;;5101901;28;20469;-48
2022/04/19 06:24:17;;;;;;;2.23;2.00;;;7.30;96.80;;;;;;5092863;28;20865;-48
2022/04/19 06:26:44;;;;;;;2.20;1.83;;;7.40;97.00;;;;;;5093041;28;20443;-47
2022/04/19 06:29:11;;;;;;;2.73;1.97;;;7.50;96.90;;;;;;5093330;28;20464;-47
2022/04/19 06:31:40;;;;;;;5.93;2.80;;;7.50;96.90;;;;;;5093125;28;20489;-49
2022/04/19 06:34:07;;;;;;;7.43;6.67;;;7.50;98.60;;;;;;5092679;28;20509;-48
2022/04/19 06:36:34;;;;;;;15.17;7.00;;;7.40;99.30;;;;;;5092284;28;20449;-46
2022/04/19 06:39:01;;;;;;;6.37;5.40;;;7.40;99.00;;;;;;5092832;28;21026;-45
2022/04/19 06:41:30;;;;;;;6.57;5.57;;;7.50;99.00;;;;;;5092840;28;20491;-46
2022/04/19 06:43:59;;;;;;;6.03;5.40;;;7.60;99.10;;;;;;5092318;28;20872;-45
2022/04/19 06:46:26;;;;;;;7.40;4.97;;;7.60;98.70;;;;;;5091144;28;20443;-46
2022/04/19 06:48:53;;;;;;;5.93;5.43;;;7.40;98.60;;;;;;5091106;28;20441;-46
2022/04/19 06:51:20;;;;;;;5.90;4.67;;;7.00;99.20;;;;;;5091028;28;20466;-45
2022/04/19 06:53:47;;;;;;;5.67;4.50;;;7.10;99.90;;;;;;5091299;28;20463;-45
2022/04/19 06:56:14;;;;;;;4.20;3.60;;;7.30;99.90;;;;;;5091074;28;20443;-45
2022/04/19 06:58:44;;;;;;;3.60;3.13;;;7.50;99.30;;;;;;5090746;28;20479;-46
2022/04/19 07:01:11;;;;;;;4.90;3.17;;;7.60;99.90;;;;;;5091931;28;20495;-45
2022/04/19 07:03:38;;;;;;;2.87;2.20;;;7.50;99.60;;;;;;5102522;28;20473;-49
2022/04/19 07:06:06;;;;;;;2.20;2.00;;;7.50;99.80;;;;;;5111898;28;20443;-47
2022/04/19 07:08:33;;;;;;;2.40;1.60;;;7.60;99.90;;;;;;5112525;28;20526;-48
2022/04/19 07:11:01;;;;;;;2.13;1.93;;;7.90;99.00;;;;;;5112275;28;20521;-49
2022/04/19 07:13:28;;;;;;;2.43;2.17;;;8.00;98.00;;;;;;5112154;28;20447;-48
2022/04/19 07:15:56;;;;;;;3.30;2.40;;;8.40;97.90;;;;;;5112071;28;20812;-48
2022/04/19 07:18:23;;;;;;;2.03;1.80;;;8.60;96.70;;;;;;5112274;28;20489;-48
2022/04/19 07:29:04;;;;;;;3.17;2.20;;;8.70;97.60;;;;;;5112192;28;20426;-48
2022/04/19 07:31:33;;;;;;;5.20;2.40;;;8.70;96.60;;;;;;5111862;28;20509;-48
2022/04/19 07:34:00;;;;;;;2.50;2.00;;;8.70;96.60;;;;;;5111297;28;20952;-48
2022/04/19 07:36:27;;;;;;;2.63;2.10;;;8.90;95.20;;;;;;5112435;28;20482;-48
2022/04/19 07:38:54;;;;;;;6.03;4.90;;;9.20;94.70;;;;;;5112194;28;20471;-49
2022/04/19 07:41:21;;;;;;;3.77;2.70;;;9.30;94.30;;;;;;5111869;28;20458;-49
2022/04/19 07:43:48;;;;;;;4.50;1.93;;;9.30;94.00;;;;;;5111634;28;20447;-50
2022/04/19 07:46:16;;;;;;;4.97;2.30;;;9.40;93.80;;;;;;5112228;28;20442;-48
2022/04/19 07:48:44;;;;;;;3.97;2.10;;;9.40;93.50;;;;;;5110996;28;20442;-48
2022/04/19 07:51:12;;;;;;;1.80;1.57;;;9.40;93.00;;;;;;5110399;28;20492;-48
2022/04/19 07:53:39;;;;;;;1.87;1.70;;;9.50;92.60;;;;;;5110975;28;20438;-48
2022/04/19 07:56:06;;;;;;;3.73;2.07;;;9.70;91.30;;;;;;5111854;28;20867;-48
2022/04/19 07:58:33;;;;;;;4.80;2.43;;;9.90;91.70;;;;;;5111424;28;20446;-48
2022/04/19 08:01:01;;;;;;;2.73;2.37;;;9.70;91.50;;;;;;5111298;28;20510;-48
2022/04/19 08:03:28;;;;;;;2.87;1.87;;;9.80;92.30;;;;;;5108592;28;20473;-49
2022/04/19 08:05:56;;;;;;;3.50;2.40;;;10.00;90.30;;;;;;5108316;28;20481;-49
2022/04/19 08:08:23;;;;;;;2.37;1.77;;;10.40;89.60;;;;;;5099765;28;20439;-48
2022/04/19 08:10:51;;;;;;;1.03;0.93;;;10.20;87.40;;;;;;5091009;28;20518;-48
2022/04/19 08:13:19;;;;;;;3.77;1.90;;;10.50;87.20;;;;;;5089339;28;20530;-48
2022/04/19 08:15:46;;;;;;;1.33;1.23;;;11.20;85.80;;;;;;5096817;28;20562;-48
2022/04/19 08:18:15;;;;;;;1.97;1.53;;;12.40;81.60;;;;;;5110615;28;20466;-48
2022/04/19 08:20:42;;;;;;;1.80;1.70;;;13.20;78.00;;;;;;5110295;28;20479;-48
2022/04/19 08:23:11;;;;;;;2.10;1.90;;;14.50;76.70;;;;;;5110127;28;20505;-49
2022/04/19 08:25:38;;;;;;;2.03;1.63;;;15.00;75.70;;;;;;5109682;28;20940;-49
2022/04/19 08:28:06;;;;;;;1.70;1.57;;;13.90;75.70;;;;;;5110046;28;20474;-49
2022/04/19 08:30:34;;;;;;;4.30;2.13;;;13.30;79.50;;;;;;5111227;28;20438;-49
2022/04/19 08:33:01;;;;;;;2.87;1.93;;;12.50;81.40;;;;;;5111084;28;20590;-49
2022/04/19 08:35:28;;;;;;;2.20;2.00;;;11.90;84.30;;;;;;5110245;28;20470;-49
2022/04/19 08:37:56;;;;;;;4.23;2.03;;;11.70;86.00;;;;;;5111329;28;20529;-49
2022/04/19 08:40:26;;;;;;;2.17;1.97;;;11.60;88.30;;;;;;5109783;28;20475;-49
2022/04/19 08:42:56;;;;;;;3.13;2.40;;;11.90;87.70;;;;;;5110588;28;20663;-49
2022/04/19 08:45:24;;;;;;;2.07;1.87;;;11.90;87.70;;;;;;5111637;28;20438;-49
2022/04/19 08:47:50;;;;;;;2.73;2.00;;;12.00;86.50;;;;;;5110998;28;20461;-48
2022/04/19 08:50:19;;;;;;;1.83;1.70;;;12.20;82.00;;;;;;5109522;28;20525;-48
2022/04/19 08:52:47;;;;;;;2.47;2.27;;;12.10;82.20;;;;;;5109878;28;20519;-48
2022/04/19 08:58:00;;;;;;;2.23;2.03;;;11.80;81.70;;;;;;5111110;28;20569;-49
2022/04/19 09:00:28;;;;;;;2.23;1.80;;;11.90;85.40;;;;;;5115132;28;20478;-49
2022/04/19 09:02:58;;;;;;;6.33;2.30;;;11.90;83.00;;;;;;5114235;28;20490;-49
2022/04/19 09:05:27;;;;;;;4.23;2.27;;;11.80;86.20;;;;;;5114862;28;20446;-49
2022/04/19 09:07:57;;;;;;;2.13;1.73;;;11.80;82.90;;;;;;5113938;28;20485;-49
2022/04/19 09:10:29;;;;;;;2.07;1.73;;;11.80;83.30;;;;;;5114074;28;20442;-49
2022/04/19 09:12:58;;;;;;;2.40;2.17;;;12.00;82.20;;;;;;5113033;28;20515;-49
2022/04/19 09:15:32;;;;;;;2.77;1.90;;;11.90;84.30;;;;;;5113248;28;20438;-48
2022/04/19 09:18:00;;;;;;;2.37;2.00;;;12.20;83.60;;;;;;5113284;28;20438;-48
2022/04/19 09:20:27;;;;;;;3.03;2.40;;;12.40;80.90;;;;;;5112438;28;20489;-49
2022/04/19 09:23:05;;;;;;;3.73;2.17;;;12.00;81.50;;;;;;5161346;22;20484;-44
2022/04/19 09:25:33;;;;;;;2.40;2.20;;;12.10;81.60;;;;;;5154324;27;20436;-43
2022/04/19 09:28:01;;;;;;;2.00;1.90;;;12.40;78.90;;;;;;5155848;27;20437;-44
2022/04/19 09:30:31;;;;;;;3.33;2.10;;;12.40;79.50;;;;;;5155664;27;20436;-44
2022/04/19 09:33:07;;;;;;;1.60;1.50;;;12.50;79.00;;;;;;5155592;27;20517;-43
2022/04/19 09:35:36;;;;;;;3.00;2.30;;;12.70;78.90;;;;;;5155199;27;20518;-43
2022/04/19 09:38:04;;;;;;;2.23;1.90;;;12.80;79.00;;;;;;5155515;27;20445;-44
2022/04/19 09:40:32;;;;;;;3.30;1.80;;;12.60;80.30;;;;;;5155646;27;21002;-43
2022/04/19 09:43:10;;;;;;;2.70;2.50;;;12.70;80.90;;;;;;5155143;27;20457;-44
2022/04/19 09:45:51;;;;;;;4.03;2.50;;;12.70;83.40;;;;;;5155387;27;20436;-48
2022/04/19 09:48:18;;;;;;;2.40;2.20;;;12.70;83.60;;;;;;5155202;27;20437;-43
2022/04/19 09:50:53;;;;;;;2.03;1.80;;;13.10;86.00;;;;;;5155176;27;20440;-44
2022/04/19 09:53:21;;;;;;;7.63;2.00;;;13.20;77.40;;;;;;5155102;27;20517;-44
2022/04/19 09:55:49;;;;;;;3.63;2.57;;;13.50;73.30;;;;;;5155365;27;20491;-43
2022/04/19 09:58:17;;;;;;;2.03;1.80;;;13.60;82.00;;;;;;5155242;27;20782;-45
2022/04/19 10:00:45;;;;;;;1.80;1.63;;;13.70;79.00;;;;;;5154201;27;20500;-45
2022/04/19 10:09:00;;;;;;;1.97;1.33;;;14.00;73.00;;;;;;5154096;27;20473;-43
2022/04/19 10:11:28;;;;;;;1.50;1.40;;;14.10;73.50;;;;;;5152976;27;20487;-44
2022/04/19 10:13:56;;;;;;;1.57;1.30;;;14.30;70.80;;;;;;5153284;27;20437;-46
2022/04/19 10:16:23;;;;;;;3.00;1.60;;;14.50;73.40;;;;;;5153653;27;20463;-45
2022/04/19 10:18:51;;;;;;;2.07;1.43;;;14.80;70.60;;;;;;5153593;27;20433;-44
2022/04/19 10:21:21;;;;;;;1.80;1.50;;;14.50;66.70;;;;;;5153167;27;20563;-44
2022/04/19 10:23:48;;;;;;;1.83;1.70;;;14.20;68.60;;;;;;5153107;27;20764;-44
2022/04/19 10:26:20;;;;;;;4.97;2.23;;;14.20;68.70;;;;;;5154782;27;20863;-46
2022/04/19 10:28:48;;;;;;;1.83;1.50;;;14.40;69.50;;;;;;5154511;27;20448;-47
2022/04/19 10:31:25;;;;;;;1.70;1.60;;;14.60;70.20;;;;;;5154326;27;20453;-44
2022/04/19 10:33:54;;;;;;;1.77;1.40;;;14.70;64.90;;;;;;5153589;27;20516;-40
2022/04/19 10:36:23;;;;;;;2.53;1.80;;;15.00;68.70;;;;;;5152721;27;20465;-44
2022/04/19 10:39:30;;;;;;;3.40;1.53;;;15.00;69.80;;;;;;5153492;27;21140;-44
2022/04/19 10:41:59;;;;;;;3.67;1.90;;;14.90;67.00;;;;;;5152860;27;20476;-44
2022/04/19 10:44:31;;;;;;;2.10;1.60;;;15.00;67.50;;;;;;5153718;27;20445;-48
2022/04/19 10:47:22;;;;;;;2.20;1.43;;;15.20;70.30;;;;;;5153920;27;20531;-45
2022/04/19 10:49:59;;;;;;;2.37;1.60;;;15.00;67.90;;;;;;5148272;27;20459;-45
2022/04/19 10:52:48;;;;;;;1.73;1.17;;;14.80;67.60;;;;;;5153970;27;20535;-44
2022/04/19 10:55:32;;;;;;;2.17;1.80;;;15.10;69.10;;;;;;5153867;27;20491;-45
2022/04/19 10:58:16;;;;;;;5.43;1.70;;;15.10;67.50;;;;;;5154210;27;20464;-46
2022/04/19 11:00:56;;;;;;;1.60;1.50;;;14.90;66.20;;;;;;5153995;27;20997;-44
2022/04/19 11:03:50;;;;;;;4.07;1.40;;;14.70;69.00;;;;;;5153533;27;20460;-44
2022/04/19 11:06:37;;;;;;;1.83;1.60;;;14.90;68.30;;;;;;5152613;27;21006;-48
2022/04/19 11:09:09;;;;;;;1.93;1.57;;;15.00;64.60;;;;;;5153058;27;20537;-44
2022/04/19 11:11:47;;;;;;;1.97;1.60;;;14.90;67.50;;;;;;5153376;27;20539;-45
2022/04/19 11:14:39;;;;;;;2.40;1.30;;;14.70;67.00;;;;;;5153459;27;20492;-45
2022/04/19 11:17:21;;;;;;;1.50;1.33;;;14.80;67.00;;;;;;5153354;27;20445;-43
2022/04/19 11:19:53;;;;;;;2.27;1.83;;;14.90;69.20;;;;;;5153522;27;20501;-43
2022/04/19 11:22:42;;;;;;;1.93;1.67;;;15.00;66.20;;;;;;5152071;27;20456;-43
2022/04/19 11:25:10;;;;;;;2.30;1.53;;;15.10;68.60;;;;;;5153023;27;20433;-44
2022/04/19 11:28:14;;;;;;;2.73;1.80;;;15.00;66.10;;;;;;5153067;27;20475;-48
2022/04/19 11:30:44;;;;;;;2.37;1.80;;;15.20;67.40;;;;;;5152245;27;20453;-44
2022/04/19 11:33:11;;;;;;;1.70;1.60;;;15.10;69.70;;;;;;5151644;27;20811;-44
2022/04/19 11:35:39;;;;;;;1.97;1.80;;;15.10;68.10;;;;;;5152614;27;20429;-44
2022/04/19 11:38:09;;;;;;;3.30;1.53;;;15.20;68.90;;;;;;5152839;27;20906;-46
2022/04/19 11:49:05;;;;;;;2.20;1.30;;;15.20;66.70;;;;;;5151672;27;20832;-44
2022/04/19 11:51:35;;;;;;;1.77;1.40;;;15.30;68.20;;;;;;5151736;27;20730;-41
2022/04/19 11:54:04;;;;;;;1.90;1.20;;;15.30;65.00;;;;;;5152451;27;20440;-43
2022/04/19 11:56:31;;;;;;;1.70;1.60;;;15.10;64.70;;;;;;5152263;27;20441;-47
2022/04/19 11:59:00;;;;;;;1.83;1.17;;;14.90;63.50;;;;;;5152866;27;20489;-43
2022/04/19 12:01:28;;;;;;;1.97;1.20;;;14.90;66.00;;;;;;5152703;27;20831;-43
2022/04/19 12:03:55;;;;;;;1.77;1.53;;;14.90;66.90;;;;;;5152687;27;20441;-45
2022/04/19 12:06:23;;;;;;;2.10;1.80;;;15.00;69.30;;;;;;5152824;27;20471;-43
2022/04/19 12:08:51;;;;;;;4.57;1.83;;;14.80;68.50;;;;;;5152622;27;20469;-43
2022/04/19 12:11:22;;;;;;;2.20;1.50;;;14.70;69.10;;;;;;5152703;27;20472;-44
2022/04/19 12:13:50;;;;;;;1.70;1.50;;;14.90;67.30;;;;;;5152309;27;20527;-44
2022/04/19 12:16:39;;;;;;;1.67;1.20;;;14.80;66.20;;;;;;5152728;27;20444;-43
2022/04/19 12:19:08;;;;;;;2.07;1.40;;;14.90;67.80;;;;;;5145611;27;20491;-49
2022/04/19 12:21:38;;;;;;;4.23;1.70;;;14.90;67.20;;;;;;5152215;27;20482;-44
2022/04/19 12:24:06;;;;;;;3.93;1.63;;;14.90;65.40;;;;;;5152823;27;20590;-46
2022/04/19 12:26:35;;;;;;;2.10;1.60;;;14.90;69.00;;;;;;5151831;27;20450;-44
2022/04/19 12:29:13;;;;;;;1.60;1.37;;;15.10;66.40;;;;;;5151368;27;20907;-44
2022/04/19 12:31:41;;;;;;;26.23;4.63;;;14.90;64.80;;;;;;5150962;27;20460;-43
2022/04/19 12:34:09;;;;;;;51.50;8.30;;;14.90;65.50;;;;;;5153011;27;20504;-44
2022/04/19 12:36:44;;;;;;;12.67;2.30;;;14.90;66.70;;;;;;5155011;27;20873;-44
2022/04/19 12:39:11;;;;;;;5.67;1.70;;;14.70;64.10;;;;;;5155457;27;20475;-45
2022/04/19 12:41:43;;;;;;;6.37;1.80;;;14.60;67.80;;;;;;5155104;27;20484;-44
2022/04/19 12:44:11;;;;;;;18.03;3.33;;;14.50;66.90;;;;;;5154957;27;20501;-49
2022/04/19 12:46:42;;;;;;;4.20;2.00;;;14.50;68.90;;;;;;5154938;27;20472;-48
2022/04/19 12:49:23;;;;;;;3.90;1.40;;;14.40;68.40;;;;;;5156300;27;20476;-44
2022/04/19 12:52:04;;;;;;;1.60;1.50;;;14.50;65.90;;;;;;5156662;27;20548;-46
2022/04/19 12:54:33;;;;;;;2.27;1.77;;;14.60;70.20;;;;;;5156353;27;20805;-44
2022/04/19 12:57:03;;;;;;;1.83;1.50;;;14.50;70.00;;;;;;5156092;27;20458;-43
2022/04/19 12:59:31;;;;;;;1.60;1.50;;;14.40;67.30;;;;;;5155809;27;20466;-44
2022/04/19 13:01:59;;;;;;;2.07;1.57;;;14.40;68.60;;;;;;5154453;27;20855;-45
2022/04/19 13:04:26;;;;;;;1.90;1.20;;;14.40;64.70;;;;;;5154299;27;20440;-42
2022/04/19 13:12:26;;;;;;;2.37;1.83;;;14.40;69.20;;;;;;5154914;27;20513;-46
2022/04/19 13:14:55;;;;;;;1.93;1.67;;;14.40;70.10;;;;;;5154722;27;20451;-43
2022/04/19 13:17:23;;;;;;;1.37;1.20;;;14.40;69.90;;;;;;5155803;27;20501;-46
2022/04/19 13:19:50;;;;;;;5.40;2.27;;;14.30;67.80;;;;;;5155738;27;20441;-46
2022/04/19 13:22:18;;;;;;;4.35;3.95;;;14.20;69.70;;;;;;5154819;27;20587;-47
2022/04/19 13:24:45;;;;;;;2.93;2.73;;;14.30;70.80;;;;;;5155786;27;20480;-45
2022/04/19 13:27:13;;;;;;;1.70;1.60;;;14.40;69.50;;;;;;5155832;27;20428;-43
2022/04/19 13:29:42;;;;;;;3.73;1.80;;;14.30;67.40;;;;;;5154814;27;20437;-44
2022/04/19 13:32:11;;;;;;;10.43;2.10;;;14.30;68.20;;;;;;5154109;27;20465;-46
2022/04/19 13:34:38;;;;;;;2.27;2.07;;;14.20;68.20;;;;;;5153823;27;20862;-43
2022/04/19 13:37:06;;;;;;;15.07;3.00;;;14.20;69.40;;;;;;5154036;27;20987;-46
2022/04/19 13:39:33;;;;;;;1.83;1.50;;;14.10;69.00;;;;;;5153223;27;20457;-44
2022/04/19 13:42:01;;;;;;;3.80;2.57;;;14.10;70.00;;;;;;5153816;27;20663;-46
2022/04/19 13:44:28;;;;;;;1.87;1.50;;;14.20;69.20;;;;;;5153315;27;20991;-47
2022/04/19 13:46:58;;;;;;;3.13;1.80;;;14.20;69.50;;;;;;5154801;27;20436;-43
2022/04/19 13:49:25;;;;;;;5.37;1.53;;;14.10;67.70;;;;;;5154242;27;20927;-44